Time;durP1;ratioP1;P1;durP2;ratioP2;P2;SDS_P1;SDS_P2;PMS_P1;PMS_P2;Temp;Humidity;BMP_temperature;BMP_pressure;BME280_temperature;BME280_humidity;BME280_pressure;Samples;Min_cycle;Max_cycle;Signal;HPM_P1;HPM_P2
2023/11/19 00:04:39;;;;;;;3.28;2.03;;;;;;;;;;10066368;28;20069;-72
2023/11/19 00:09:31;;;;;;;2.67;2.17;;;;;;;;;;10066200;28;20049;-72
2023/11/19 00:14:24;;;;;;;1.85;1.70;;;;;;;;;;10065977;28;20420;-72
2023/11/19 00:19:16;;;;;;;4.65;2.03;;;;;;;;;;10066197;28;20041;-72
2023/11/19 00:24:08;;;;;;;2.58;2.30;;;;;;;;;;10065394;28;20049;-71
2023/11/19 00:29:00;;;;;;;2.45;2.15;;;;;;;;;;10030151;28;20104;-72
2023/11/19 00:33:52;;;;;;;3.20;2.33;;;;;;;;;;10027407;28;20034;-72
2023/11/19 00:38:44;;;;;;;5.30;2.13;;;;;;;;;;10028943;28;20053;-72
2023/11/19 00:43:36;;;;;;;2.90;2.67;;;;;;;;;;10027090;28;20041;-71
2023/11/19 00:48:28;;;;;;;4.88;2.70;;;;;;;;;;10025840;28;20037;-72
2023/11/19 00:53:20;;;;;;;2.05;1.95;;;;;;;;;;10028782;28;20076;-72
2023/11/19 00:58:12;;;;;;;2.70;2.20;;;;;;;;;;10028434;28;20420;-72
2023/11/19 01:03:04;;;;;;;2.78;2.15;;;;;;;;;;10033938;28;20042;-74
2023/11/19 01:07:56;;;;;;;2.00;1.80;;;;;;;;;;10033856;28;20046;-74
2023/11/19 01:12:48;;;;;;;2.60;2.13;;;;;;;;;;10046967;28;20099;-74
2023/11/19 01:17:40;;;;;;;1.98;1.85;;;;;;;;;;10039103;28;20034;-74
2023/11/19 01:22:44;;;;;;;2.65;2.00;;;;;;;;;;10032839;28;20042;-72
2023/11/19 01:27:36;;;;;;;1.80;1.70;;;;;;;;;;10034585;28;20145;-74
2023/11/19 01:32:28;;;;;;;2.47;1.73;;;;;;;;;;10033681;28;20417;-74
2023/11/19 01:37:20;;;;;;;2.42;2.03;;;;;;;;;;10032879;28;20054;-72
2023/11/19 01:42:12;;;;;;;2.38;2.17;;;;;;;;;;10034313;28;20058;-72
2023/11/19 01:47:04;;;;;;;2.20;2.08;;;;;;;;;;10033675;28;20053;-72
2023/11/19 01:51:57;;;;;;;3.08;2.78;;;;;;;;;;10034509;28;20451;-74
2023/11/19 01:56:49;;;;;;;3.38;2.85;;;;;;;;;;10032469;28;20357;-74
2023/11/19 02:01:41;;;;;;;5.80;3.08;;;;;;;;;;10049055;28;20104;-74
2023/11/19 02:06:36;;;;;;;2.88;2.35;;;;;;;;;;10031848;28;20089;-74
2023/11/19 02:11:29;;;;;;;2.78;1.88;;;;;;;;;;10032324;28;20052;-74
2023/11/19 02:16:21;;;;;;;2.03;1.70;;;;;;;;;;10031343;28;20042;-74
2023/11/19 02:21:14;;;;;;;1.60;1.50;;;;;;;;;;10033341;28;20065;-74
2023/11/19 02:26:17;;;;;;;3.38;2.00;;;;;;;;;;10047392;28;20050;-74
2023/11/19 02:31:10;;;;;;;2.75;1.88;;;;;;;;;;10032260;28;20040;-74
2023/11/19 02:36:04;;;;;;;3.40;2.70;;;;;;;;;;10047739;28;20045;-72
2023/11/19 02:40:57;;;;;;;9.27;2.65;;;;;;;;;;10029450;28;20338;-74
2023/11/19 02:45:48;;;;;;;2.38;2.17;;;;;;;;;;10046432;28;20570;-72
2023/11/19 02:50:41;;;;;;;2.08;1.88;;;;;;;;;;10032473;28;20042;-72
2023/11/19 02:55:37;;;;;;;1.98;1.70;;;;;;;;;;10029883;28;20424;-72
2023/11/19 03:00:37;;;;;;;2.38;1.92;;;;;;;;;;10030214;28;20827;-74
2023/11/19 03:05:30;;;;;;;2.30;2.07;;;;;;;;;;10030197;28;20452;-71
2023/11/19 03:10:22;;;;;;;1.80;1.70;;;;;;;;;;10030551;28;20461;-72
2023/11/19 03:15:14;;;;;;;3.03;1.95;;;;;;;;;;10040020;28;20097;-72
2023/11/19 03:20:09;;;;;;;3.55;2.47;;;;;;;;;;10030356;28;20042;-72
2023/11/19 03:25:01;;;;;;;2.00;1.60;;;;;;;;;;10029276;28;20111;-72
2023/11/19 03:29:53;;;;;;;2.55;1.42;;;;;;;;;;10030570;28;20530;-72
2023/11/19 03:34:45;;;;;;;1.52;1.42;;;;;;;;;;10029485;28;20071;-72
2023/11/19 03:39:37;;;;;;;18.15;9.95;;;;;;;;;;10029731;28;20422;-72
2023/11/19 03:44:29;;;;;;;84.13;54.55;;;;;;;;;;10029678;28;20080;-72
2023/11/19 03:49:21;;;;;;;13.60;12.20;;;;;;;;;;10028682;28;20377;-72
2023/11/19 03:54:12;;;;;;;5.63;3.85;;;;;;;;;;10043131;28;20069;-72
2023/11/19 03:59:04;;;;;;;3.17;2.55;;;;;;;;;;10028913;28;20140;-72
2023/11/19 04:03:56;;;;;;;1.73;1.63;;;;;;;;;;10027136;28;20132;-72
2023/11/19 04:08:49;;;;;;;7.93;7.13;;;;;;;;;;10027568;28;20115;-72
2023/11/19 04:13:42;;;;;;;13.43;11.57;;;;;;;;;;10028201;28;20388;-72
2023/11/19 04:18:34;;;;;;;13.75;10.48;;;;;;;;;;10028428;28;20110;-72
2023/11/19 04:23:26;;;;;;;8.07;7.28;;;;;;;;;;10028561;28;20061;-74
2023/11/19 04:28:17;;;;;;;2.13;1.98;;;;;;;;;;10027619;28;20053;-74
2023/11/19 04:33:10;;;;;;;21.27;17.27;;;;;;;;;;10025186;28;20042;-72
2023/11/19 04:38:01;;;;;;;23.60;19.73;;;;;;;;;;10027102;28;20121;-72
2023/11/19 04:42:53;;;;;;;14.15;9.10;;;;;;;;;;10027676;28;20045;-74
2023/11/19 04:47:45;;;;;;;7.97;6.55;;;;;;;;;;10028318;28;20455;-73
2023/11/19 04:52:40;;;;;;;60.90;39.72;;;;;;;;;;10026216;28;20096;-73
2023/11/19 04:57:32;;;;;;;114.82;86.32;;;;;;;;;;10027674;28;20180;-72
2023/11/19 05:02:24;;;;;;;73.43;40.65;;;;;;;;;;10025944;28;20057;-72
2023/11/19 05:07:16;;;;;;;27.80;18.50;;;;;;;;;;10028301;28;20078;-72
2023/11/19 05:12:11;;;;;;;7.00;4.25;;;;;;;;;;10027736;28;20037;-72
2023/11/19 05:17:03;;;;;;;6.72;5.38;;;;;;;;;;10027623;28;20080;-72
2023/11/19 05:21:55;;;;;;;7.30;6.47;;;;;;;;;;10025892;28;20046;-72
2023/11/19 05:26:47;;;;;;;3.50;3.20;;;;;;;;;;10026867;28;20049;-72
2023/11/19 05:31:39;;;;;;;12.35;9.77;;;;;;;;;;10026901;28;20116;-72
2023/11/19 05:36:35;;;;;;;17.67;11.85;;;;;;;;;;10026176;28;20439;-72
2023/11/19 05:41:27;;;;;;;21.40;15.90;;;;;;;;;;10026012;28;20049;-71
2023/11/19 05:46:18;;;;;;;24.65;16.42;;;;;;;;;;10027258;28;20061;-72
2023/11/19 05:51:12;;;;;;;39.83;27.33;;;;;;;;;;10037162;28;20456;-71
2023/11/19 05:56:04;;;;;;;4.53;3.42;;;;;;;;;;10032273;28;20073;-72
2023/11/19 06:00:57;;;;;;;5.13;4.63;;;;;;;;;;10032535;28;20085;-72
2023/11/19 06:05:49;;;;;;;1.85;1.75;;;;;;;;;;10033834;28;20049;-72
2023/11/19 06:10:42;;;;;;;12.95;10.48;;;;;;;;;;10032170;28;20057;-71
2023/11/19 06:15:34;;;;;;;5.45;4.57;;;;;;;;;;10032813;28;20263;-71
2023/11/19 06:20:27;;;;;;;8.02;5.75;;;;;;;;;;10030880;28;20439;-71
2023/11/19 06:25:19;;;;;;;2.17;1.95;;;;;;;;;;10031579;28;20530;-71
2023/11/19 06:30:11;;;;;;;3.40;2.00;;;;;;;;;;10032781;28;20162;-71
2023/11/19 06:35:06;;;;;;;5.00;3.83;;;;;;;;;;10030504;28;20156;-72
2023/11/19 06:39:59;;;;;;;6.35;3.72;;;;;;;;;;10031218;28;20100;-71
2023/11/19 06:44:51;;;;;;;16.48;7.97;;;;;;;;;;10031495;28;20057;-71
2023/11/19 06:49:46;;;;;;;41.00;24.98;;;;;;;;;;10030666;28;20433;-72
2023/11/19 06:54:41;;;;;;;51.17;32.45;;;;;;;;;;10031841;28;20096;-72
2023/11/19 06:59:32;;;;;;;346.15;232.43;;;;;;;;;;10029061;28;20083;-72
2023/11/19 07:04:24;;;;;;;81.60;54.25;;;;;;;;;;10031091;28;20053;-71
2023/11/19 07:09:16;;;;;;;380.60;267.90;;;;;;;;;;10033578;28;20049;-71
2023/11/19 07:14:08;;;;;;;200.45;138.38;;;;;;;;;;10030525;28;20038;-71
2023/11/19 07:19:01;;;;;;;57.40;43.35;;;;;;;;;;10030111;28;20060;-71
2023/11/19 07:23:53;;;;;;;26.08;23.33;;;;;;;;;;10029741;28;20087;-72
2023/11/19 07:28:45;;;;;;;32.97;29.70;;;;;;;;;;10036503;28;20121;-71
2023/11/19 07:33:37;;;;;;;25.35;19.10;;;;;;;;;;10054306;28;20439;-71
2023/11/19 07:38:29;;;;;;;3.17;2.80;;;;;;;;;;10066583;28;20045;-71
2023/11/19 07:43:21;;;;;;;23.17;17.73;;;;;;;;;;10066194;28;20511;-71
2023/11/19 07:48:13;;;;;;;16.10;14.40;;;;;;;;;;10067727;28;20041;-71
2023/11/19 07:53:04;;;;;;;6.28;5.18;;;;;;;;;;10066343;28;20514;-71
2023/11/19 07:57:56;;;;;;;5.72;4.60;;;;;;;;;;10066917;28;20068;-71
2023/11/19 08:02:48;;;;;;;5.85;5.25;;;;;;;;;;10066621;28;20080;-71
2023/11/19 08:07:41;;;;;;;4.68;3.95;;;;;;;;;;10066167;28;20079;-71
2023/11/19 08:12:35;;;;;;;8.43;4.43;;;;;;;;;;10066093;28;20037;-73
2023/11/19 08:17:27;;;;;;;7.03;4.32;;;;;;;;;;10066969;28;20053;-73
2023/11/19 08:22:19;;;;;;;3.78;3.25;;;;;;;;;;10065373;28;20045;-71
2023/11/19 08:27:10;;;;;;;3.40;3.10;;;;;;;;;;10065891;28;20307;-71
2023/11/19 08:32:03;;;;;;;7.22;5.68;;;;;;;;;;10065515;28;20057;-71
2023/11/19 08:36:55;;;;;;;5.22;4.22;;;;;;;;;;10065069;28;20041;-71
2023/11/19 08:41:48;;;;;;;5.75;3.25;;;;;;;;;;10065592;28;20064;-71
2023/11/19 08:46:49;;;;;;;3.97;3.50;;;;;;;;;;10065317;28;20518;-71
2023/11/19 08:51:41;;;;;;;4.50;3.28;;;;;;;;;;10064940;28;20049;-71
2023/11/19 08:56:35;;;;;;;5.30;4.50;;;;;;;;;;10064678;28;20087;-71
2023/11/19 09:01:27;;;;;;;6.70;4.75;;;;;;;;;;10064525;28;20049;-71
2023/11/19 09:06:19;;;;;;;2.92;2.63;;;;;;;;;;10061835;28;20427;-72
2023/11/19 09:11:11;;;;;;;4.40;3.10;;;;;;;;;;10061699;28;20399;-72
2023/11/19 09:16:04;;;;;;;4.20;3.55;;;;;;;;;;10060836;28;20045;-72
2023/11/19 09:20:56;;;;;;;6.97;3.17;;;;;;;;;;10065197;28;20151;-72
2023/11/19 09:25:47;;;;;;;7.22;4.25;;;;;;;;;;10072903;28;20468;-72
2023/11/19 09:30:39;;;;;;;4.63;3.28;;;;;;;;;;10072013;28;20106;-72
2023/11/19 09:35:31;;;;;;;4.97;3.45;;;;;;;;;;10072165;28;20041;-72
2023/11/19 09:40:23;;;;;;;3.78;2.97;;;;;;;;;;10070917;28;20073;-69
2023/11/19 09:45:16;;;;;;;7.68;4.20;;;;;;;;;;10071327;28;20078;-71
2023/11/19 09:50:09;;;;;;;3.92;3.55;;;;;;;;;;10071787;28;20083;-70
2023/11/19 09:55:01;;;;;;;6.47;3.80;;;;;;;;;;10068375;28;20129;-70
2023/11/19 09:59:54;;;;;;;5.68;4.00;;;;;;;;;;10069488;28;20041;-71
2023/11/19 10:04:47;;;;;;;3.70;3.40;;;;;;;;;;10067905;28;20041;-71
2023/11/19 10:09:39;;;;;;;4.43;3.80;;;;;;;;;;10066549;28;20088;-73
2023/11/19 10:14:31;;;;;;;8.05;4.97;;;;;;;;;;10066175;28;20368;-74
2023/11/19 10:19:23;;;;;;;5.10;4.38;;;;;;;;;;10065700;28;20464;-74
2023/11/19 10:24:15;;;;;;;6.75;4.50;;;;;;;;;;10070448;28;20048;-73
2023/11/19 10:29:13;;;;;;;5.25;3.92;;;;;;;;;;10070562;28;20084;-73
2023/11/19 10:34:24;;;;;;;10.68;6.35;;;;;;;;;;10068204;28;20280;-73
2023/11/19 10:39:18;;;;;;;4.65;3.85;;;;;;;;;;10069841;28;20045;-73
2023/11/19 10:44:09;;;;;;;6.57;5.03;;;;;;;;;;10069114;28;20080;-73
2023/11/19 10:49:01;;;;;;;6.75;4.20;;;;;;;;;;10064019;28;20049;-72
2023/11/19 10:53:56;;;;;;;5.80;4.63;;;;;;;;;;10068078;28;20452;-73
2023/11/19 10:58:50;;;;;;;4.38;3.88;;;;;;;;;;10068895;28;20045;-73
2023/11/19 11:03:42;;;;;;;6.38;4.93;;;;;;;;;;10067896;28;20045;-73
2023/11/19 11:08:36;;;;;;;7.25;4.70;;;;;;;;;;10066842;28;20042;-73
2023/11/19 11:13:29;;;;;;;4.88;4.35;;;;;;;;;;10066041;28;20157;-73
2023/11/19 11:18:21;;;;;;;7.28;5.50;;;;;;;;;;10068036;28;20049;-73
2023/11/19 11:23:48;;;;;;;5.85;4.28;;;;;;;;;;10031029;28;20461;-73
2023/11/19 11:28:49;;;;;;;6.00;3.80;;;;;;;;;;10029505;28;20056;-73
2023/11/19 11:34:06;;;;;;;5.72;5.18;;;;;;;;;;10026576;28;20092;-73
2023/11/19 11:39:00;;;;;;;14.93;11.70;;;;;;;;;;10025055;28;20416;-73
2023/11/19 11:43:55;;;;;;;6.10;4.65;;;;;;;;;;10025529;28;20685;-73
2023/11/19 11:48:48;;;;;;;9.18;4.90;;;;;;;;;;10028496;28;20472;-73
2023/11/19 11:53:41;;;;;;;7.40;5.30;;;;;;;;;;10062806;28;20033;-72
2023/11/19 11:58:35;;;;;;;4.95;4.15;;;;;;;;;;10059972;28;20041;-71
2023/11/19 12:03:29;;;;;;;7.57;5.78;;;;;;;;;;10065538;28;20046;-70
2023/11/19 12:08:26;;;;;;;7.80;5.75;;;;;;;;;;10065652;28;20041;-71
2023/11/19 12:13:19;;;;;;;8.02;6.10;;;;;;;;;;10045525;28;20132;-71
2023/11/19 12:18:11;;;;;;;9.88;5.88;;;;;;;;;;10047591;28;20065;-71
2023/11/19 12:23:05;;;;;;;8.38;5.82;;;;;;;;;;10027287;28;20479;-71
2023/11/19 12:27:58;;;;;;;6.57;5.00;;;;;;;;;;10028120;28;20137;-71
2023/11/19 12:32:50;;;;;;;10.35;6.28;;;;;;;;;;10038177;28;20038;-70
2023/11/19 12:37:52;;;;;;;11.02;6.93;;;;;;;;;;10062764;28;20486;-70
2023/11/19 12:42:54;;;;;;;6.47;5.18;;;;;;;;;;10060993;28;20049;-70
2023/11/19 12:47:51;;;;;;;8.40;5.78;;;;;;;;;;10060755;28;20042;-70
2023/11/19 12:52:43;;;;;;;9.40;6.43;;;;;;;;;;10062606;28;20137;-71
2023/11/19 12:57:39;;;;;;;7.15;5.63;;;;;;;;;;10059027;28;20472;-71
2023/11/19 13:02:51;;;;;;;10.48;6.18;;;;;;;;;;10060213;28;20333;-71
2023/11/19 13:07:45;;;;;;;6.22;4.38;;;;;;;;;;10064199;28;20503;-70
2023/11/19 13:12:36;;;;;;;5.13;3.83;;;;;;;;;;10046873;28;20462;-71
2023/11/19 13:17:28;;;;;;;4.47;3.40;;;;;;;;;;10064328;28;20050;-71
2023/11/19 13:22:20;;;;;;;4.53;3.22;;;;;;;;;;10064671;28;20428;-71
2023/11/19 13:27:13;;;;;;;5.07;3.42;;;;;;;;;;10041857;28;20054;-71
2023/11/19 13:32:05;;;;;;;5.93;4.00;;;;;;;;;;10037654;28;20080;-71
2023/11/19 13:36:57;;;;;;;6.07;4.45;;;;;;;;;;10035522;28;20042;-71
2023/11/19 13:41:50;;;;;;;5.60;4.70;;;;;;;;;;10060678;28;20356;-71
2023/11/19 13:46:44;;;;;;;5.43;4.53;;;;;;;;;;10063611;28;20132;-71
2023/11/19 13:51:37;;;;;;;11.52;4.40;;;;;;;;;;10059462;28;20045;-70
2023/11/19 13:56:29;;;;;;;5.45;4.10;;;;;;;;;;10068265;28;20037;-70
2023/11/19 14:01:21;;;;;;;5.03;3.72;;;;;;;;;;10070327;28;20124;-69
2023/11/19 14:06:16;;;;;;;4.45;3.65;;;;;;;;;;10060909;28;20046;-70
2023/11/19 14:11:08;;;;;;;6.22;4.28;;;;;;;;;;10068991;28;20534;-71
2023/11/19 14:16:00;;;;;;;6.57;4.60;;;;;;;;;;10070243;28;20095;-72
2023/11/19 14:20:52;;;;;;;6.82;4.57;;;;;;;;;;10072310;28;20045;-77
2023/11/19 14:25:44;;;;;;;5.15;3.60;;;;;;;;;;10064956;28;20148;-76
2023/11/19 14:30:36;;;;;;;7.68;4.45;;;;;;;;;;10046790;28;20103;-78
2023/11/19 14:35:30;;;;;;;9.80;5.40;;;;;;;;;;10047046;28;20182;-79
2023/11/19 14:40:22;;;;;;;5.90;4.65;;;;;;;;;;10037886;28;20495;-79
2023/11/19 14:45:32;;;;;;;8.10;5.47;;;;;;;;;;10042232;28;20050;-79
2023/11/19 14:50:36;;;;;;;5.63;5.00;;;;;;;;;;10034150;28;20540;-79
2023/11/19 14:55:27;;;;;;;8.85;5.65;;;;;;;;;;10034562;28;20139;-79
2023/11/19 15:00:20;;;;;;;6.10;5.30;;;;;;;;;;10069935;28;20081;-79
2023/11/19 15:05:13;;;;;;;13.18;11.35;;;;;;;;;;10045041;28;20045;-80
2023/11/19 15:10:09;;;;;;;89.47;74.35;;;;;;;;;;10033700;28;20103;-80
2023/11/19 15:15:02;;;;;;;25.95;22.35;;;;;;;;;;10036264;28;20042;-80
2023/11/19 15:19:54;;;;;;;44.13;37.55;;;;;;;;;;10048726;28;20050;-80
2023/11/19 15:24:46;;;;;;;60.13;49.83;;;;;;;;;;10035845;28;20221;-80
2023/11/19 15:29:39;;;;;;;45.85;34.15;;;;;;;;;;10038323;28;20068;-81
2023/11/19 15:34:31;;;;;;;30.40;20.27;;;;;;;;;;10050884;28;20133;-80
2023/11/19 15:39:23;;;;;;;22.38;18.08;;;;;;;;;;10048280;28;20085;-80
2023/11/19 15:44:15;;;;;;;7.65;6.63;;;;;;;;;;10043553;28;20143;-80
2023/11/19 15:49:07;;;;;;;8.45;6.80;;;;;;;;;;10037322;28;20069;-80
2023/11/19 15:53:58;;;;;;;19.83;10.88;;;;;;;;;;10054782;28;20109;-80
2023/11/19 15:58:50;;;;;;;22.48;15.93;;;;;;;;;;10082000;28;20107;-80
2023/11/19 16:03:42;;;;;;;25.48;14.60;;;;;;;;;;10066619;28;20129;-81
2023/11/19 16:08:38;;;;;;;14.82;9.05;;;;;;;;;;10075895;28;20100;-80
2023/11/19 16:13:30;;;;;;;22.70;17.42;;;;;;;;;;10068230;28;20139;-81
2023/11/19 16:18:22;;;;;;;25.65;15.32;;;;;;;;;;10064187;28;20068;-81
2023/11/19 16:23:17;;;;;;;18.33;12.63;;;;;;;;;;10068757;28;20069;-81
2023/11/19 16:28:09;;;;;;;11.43;9.57;;;;;;;;;;10043635;28;20081;-77
2023/11/19 16:33:02;;;;;;;12.45;8.43;;;;;;;;;;10047221;28;20046;-82
2023/11/19 16:37:55;;;;;;;13.63;9.00;;;;;;;;;;10059206;28;20045;-82
2023/11/19 16:42:48;;;;;;;9.13;7.55;;;;;;;;;;10075514;28;20099;-81
2023/11/19 16:47:41;;;;;;;15.73;10.45;;;;;;;;;;10066611;28;20188;-82
2023/11/19 16:52:33;;;;;;;17.38;14.25;;;;;;;;;;10061449;28;20049;-82
2023/11/19 16:57:27;;;;;;;15.23;12.32;;;;;;;;;;10065245;28;20079;-82
2023/11/19 17:02:19;;;;;;;19.02;14.77;;;;;;;;;;10063469;28;20037;-82
2023/11/19 17:07:11;;;;;;;16.65;13.48;;;;;;;;;;10064058;28;20065;-83
2023/11/19 17:12:03;;;;;;;13.90;10.23;;;;;;;;;;10063104;28;20053;-82
2023/11/19 17:16:55;;;;;;;22.80;20.40;;;;;;;;;;10057954;28;20056;-82
2023/11/19 17:21:46;;;;;;;17.23;15.02;;;;;;;;;;10048242;28;20533;-81
2023/11/19 17:26:38;;;;;;;48.75;30.65;;;;;;;;;;10054560;28;20077;-82
2023/11/19 17:31:36;;;;;;;29.58;25.88;;;;;;;;;;10063899;28;20076;-82
2023/11/19 17:36:27;;;;;;;27.27;17.40;;;;;;;;;;10050253;28;20427;-82
2023/11/19 17:41:19;;;;;;;25.88;15.65;;;;;;;;;;10067517;28;20061;-82
2023/11/19 17:46:11;;;;;;;26.40;17.17;;;;;;;;;;10082462;28;20037;-82
2023/11/19 17:51:04;;;;;;;20.55;12.75;;;;;;;;;;10069913;28;20049;-81
2023/11/19 17:55:57;;;;;;;21.58;15.27;;;;;;;;;;10064970;28;20464;-81
2023/11/19 18:00:49;;;;;;;19.33;13.80;;;;;;;;;;10063812;28;20049;-82
2023/11/19 18:05:41;;;;;;;18.33;14.02;;;;;;;;;;10064863;28;20203;-83
2023/11/19 18:10:33;;;;;;;18.27;15.70;;;;;;;;;;10067444;28;20425;-83
2023/11/19 18:15:25;;;;;;;18.73;15.82;;;;;;;;;;10067260;28;20103;-81
2023/11/19 18:20:17;;;;;;;20.08;13.48;;;;;;;;;;10067747;28;20046;-82
2023/11/19 18:25:13;;;;;;;23.60;19.27;;;;;;;;;;10068171;28;20046;-82
2023/11/19 18:30:07;;;;;;;46.40;35.60;;;;;;;;;;10063669;28;20052;-82
2023/11/19 18:34:59;;;;;;;37.50;28.90;;;;;;;;;;10063187;28;20378;-82
2023/11/19 18:39:51;;;;;;;28.40;21.30;;;;;;;;;;10065714;28;20041;-81
2023/11/19 18:44:43;;;;;;;31.52;25.65;;;;;;;;;;10074460;28;20688;-81
2023/11/19 18:49:36;;;;;;;64.10;50.35;;;;;;;;;;10066864;28;20081;-81
2023/11/19 18:54:27;;;;;;;28.48;23.15;;;;;;;;;;10064825;28;20085;-81
2023/11/19 18:59:19;;;;;;;64.82;48.22;;;;;;;;;;10078607;28;20430;-82
2023/11/19 19:04:11;;;;;;;61.40;46.15;;;;;;;;;;10067813;28;20423;-81
2023/11/19 19:09:03;;;;;;;21.13;17.85;;;;;;;;;;10065729;28;20041;-81
2023/11/19 19:13:55;;;;;;;22.90;14.52;;;;;;;;;;10071384;28;20053;-81
2023/11/19 19:18:47;;;;;;;20.25;13.60;;;;;;;;;;10068011;28;20132;-81
2023/11/19 19:23:39;;;;;;;34.40;24.73;;;;;;;;;;10066261;28;20049;-81
2023/11/19 19:28:37;;;;;;;34.05;24.42;;;;;;;;;;10065546;28;20534;-81
2023/11/19 19:33:28;;;;;;;23.55;16.95;;;;;;;;;;10081943;28;20471;-81
2023/11/19 19:38:20;;;;;;;13.93;12.48;;;;;;;;;;10075094;28;20099;-80
2023/11/19 19:43:12;;;;;;;16.70;12.02;;;;;;;;;;10066275;28;20037;-81
2023/11/19 19:48:05;;;;;;;13.98;12.27;;;;;;;;;;10071648;28;20045;-82
2023/11/19 19:52:57;;;;;;;14.98;11.98;;;;;;;;;;10066766;28;20511;-81
2023/11/19 19:57:49;;;;;;;16.17;12.63;;;;;;;;;;10068272;28;20451;-82
2023/11/19 20:02:42;;;;;;;17.55;11.13;;;;;;;;;;10050086;28;20129;-81
2023/11/19 20:07:34;;;;;;;17.08;13.70;;;;;;;;;;10035659;28;20044;-80
2023/11/19 20:12:27;;;;;;;16.73;13.18;;;;;;;;;;10038021;28;20049;-78
2023/11/19 20:17:22;;;;;;;19.73;13.57;;;;;;;;;;10059839;28;20445;-76
2023/11/19 20:22:14;;;;;;;16.80;12.52;;;;;;;;;;10059417;28;20045;-77
2023/11/19 20:27:07;;;;;;;23.05;12.10;;;;;;;;;;10054887;28;20053;-77
2023/11/19 20:31:59;;;;;;;15.50;11.55;;;;;;;;;;10062961;28;20365;-76
2023/11/19 20:36:51;;;;;;;14.32;12.82;;;;;;;;;;10044341;28;20129;-77
2023/11/19 20:41:43;;;;;;;21.40;13.45;;;;;;;;;;10062312;28;20048;-77
2023/11/19 20:46:35;;;;;;;15.88;12.55;;;;;;;;;;10062831;28;20091;-76
2023/11/19 20:51:29;;;;;;;21.50;14.43;;;;;;;;;;10055870;28;20045;-77
2023/11/19 20:56:24;;;;;;;17.73;14.38;;;;;;;;;;10061259;28;20527;-78
2023/11/19 21:01:16;;;;;;;19.58;15.35;;;;;;;;;;10059950;28;20497;-77
2023/11/19 21:06:08;;;;;;;14.80;10.57;;;;;;;;;;10038934;28;20045;-77
2023/11/19 21:11:00;;;;;;;17.45;13.70;;;;;;;;;;10047278;28;20042;-77
2023/11/19 21:15:52;;;;;;;19.10;14.57;;;;;;;;;;10059511;28;20077;-77
2023/11/19 21:20:49;;;;;;;18.10;13.88;;;;;;;;;;10056567;28;20078;-77
2023/11/19 21:25:41;;;;;;;17.10;10.93;;;;;;;;;;10054185;28;20084;-77
2023/11/19 21:30:33;;;;;;;14.13;11.98;;;;;;;;;;10063619;28;20498;-76
2023/11/19 21:35:25;;;;;;;13.68;9.95;;;;;;;;;;10067178;28;20451;-77
2023/11/19 21:40:17;;;;;;;10.73;9.57;;;;;;;;;;10083388;28;20072;-77
2023/11/19 21:45:09;;;;;;;10.70;8.85;;;;;;;;;;10081007;28;20466;-78
2023/11/19 21:50:01;;;;;;;13.07;9.82;;;;;;;;;;10072137;28;20080;-77
2023/11/19 21:54:53;;;;;;;14.07;8.13;;;;;;;;;;10076399;28;20042;-77
2023/11/19 21:59:45;;;;;;;14.60;8.80;;;;;;;;;;10073335;28;20384;-76
2023/11/19 22:04:37;;;;;;;14.23;9.23;;;;;;;;;;10068562;28;20103;-76
2023/11/19 22:09:29;;;;;;;8.52;7.55;;;;;;;;;;10087410;28;20127;-77
2023/11/19 22:14:21;;;;;;;12.48;8.23;;;;;;;;;;10087726;28;20479;-77
2023/11/19 22:19:13;;;;;;;11.20;7.95;;;;;;;;;;10054602;28;20095;-77
2023/11/19 22:24:05;;;;;;;10.75;7.35;;;;;;;;;;10075829;28;20041;-77
2023/11/19 22:28:59;;;;;;;10.70;7.93;;;;;;;;;;10068212;28;20314;-78
2023/11/19 22:33:52;;;;;;;10.77;7.70;;;;;;;;;;10072276;28;20053;-77
2023/11/19 22:38:44;;;;;;;8.00;6.13;;;;;;;;;;10077680;28;20128;-77
2023/11/19 22:43:36;;;;;;;8.90;7.55;;;;;;;;;;10062290;28;20042;-76
2023/11/19 22:48:28;;;;;;;10.48;7.53;;;;;;;;;;10081646;28;20056;-77
2023/11/19 22:53:20;;;;;;;10.30;6.25;;;;;;;;;;10088086;28;20053;-77
2023/11/19 22:58:12;;;;;;;11.48;7.53;;;;;;;;;;10073742;28;20041;-77
2023/11/19 23:03:04;;;;;;;10.45;6.82;;;;;;;;;;10086513;28;20121;-77
2023/11/19 23:07:57;;;;;;;8.75;6.57;;;;;;;;;;10075918;28;20069;-76
2023/11/19 23:12:49;;;;;;;9.85;6.75;;;;;;;;;;10078294;28;20107;-77
2023/11/19 23:17:42;;;;;;;10.30;7.13;;;;;;;;;;10064634;28;20077;-77
2023/11/19 23:22:37;;;;;;;9.07;6.78;;;;;;;;;;10063350;28;20376;-77
2023/11/19 23:27:29;;;;;;;12.63;7.00;;;;;;;;;;10062363;28;20144;-77
2023/11/19 23:32:21;;;;;;;9.68;7.45;;;;;;;;;;10065955;28;20053;-77
2023/11/19 23:37:13;;;;;;;14.45;7.97;;;;;;;;;;10066670;28;20041;-77
2023/11/19 23:42:06;;;;;;;18.13;8.95;;;;;;;;;;10065928;28;20045;-76
2023/11/19 23:46:58;;;;;;;10.98;7.55;;;;;;;;;;10065735;28;20495;-77
2023/11/19 23:51:50;;;;;;;11.52;7.22;;;;;;;;;;10065258;28;20136;-77
2023/11/19 23:56:41;;;;;;;8.95;7.25;;;;;;;;;;10065736;28;20548;-77
